Time;durP1;ratioP1;P1;durP2;ratioP2;P2;SDS_P1;SDS_P2;PMS_P1;PMS_P2;Temp;Humidity;BMP_temperature;BMP_pressure;BME280_temperature;BME280_humidity;BME280_pressure;Samples;Min_cycle;Max_cycle;Signal;HPM_P1;HPM_P2
2021/08/06 00:01:41;;;;;;;20.73;6.97;;;;;;;24.94;72.92;93757.06;10529094;28;20592;-75
2021/08/06 00:06:42;;;;;;;17.77;6.30;;;;;;;24.93;75.03;93747.22;10528363;28;20290;-75
2021/08/06 00:11:42;;;;;;;20.80;6.70;;;;;;;24.99;74.55;93751.19;10528091;28;20274;-74
2021/08/06 00:16:43;;;;;;;15.32;5.70;;;;;;;25.18;76.17;93730.78;10528703;28;20269;-74
2021/08/06 00:21:43;;;;;;;19.17;6.70;;;;;;;25.18;73.09;93735.50;10528169;28;20023;-75
2021/08/06 00:26:44;;;;;;;22.47;5.97;;;;;;;25.18;72.57;93730.00;10527770;28;20463;-74
2021/08/06 00:31:44;;;;;;;21.73;6.45;;;;;;;25.13;72.64;93731.19;10527746;28;20038;-75
2021/08/06 00:36:45;;;;;;;19.97;6.10;;;;;;;25.10;73.40;93723.69;10474455;28;20046;-75
2021/08/06 00:41:45;;;;;;;27.60;6.83;;;;;;;25.12;72.82;93723.28;10485883;28;20518;-74
2021/08/06 00:46:45;;;;;;;18.43;5.77;;;;;;;25.19;72.96;93704.06;10486579;28;20036;-74
2021/08/06 00:51:46;;;;;;;19.65;5.88;;;;;;;25.24;72.39;93698.16;10485676;28;20027;-75
2021/08/06 00:56:48;;;;;;;22.50;7.28;;;;;;;25.13;73.31;93691.88;10485967;28;20032;-74
2021/08/06 01:02:03;;;;;;;28.13;5.43;;;;;;;25.03;72.59;93697.00;10487174;28;20511;-75
2021/08/06 01:07:13;;;;;;;13.48;5.45;;;;;;;24.98;73.10;93699.31;10486395;28;20021;-75
2021/08/06 01:12:24;;;;;;;24.40;7.00;;;;;;;24.77;75.76;93717.38;10486231;28;20028;-75
2021/08/06 01:17:29;;;;;;;23.80;5.50;;;;;;;24.72;76.04;93712.25;10486117;28;20032;-75
2021/08/06 01:22:40;;;;;;;12.85;4.55;;;;;;;24.42;78.94;93739.97;10485324;28;20036;-75
2021/08/06 01:27:42;;;;;;;18.75;6.25;;;;;;;24.23;80.35;93742.63;10484466;28;20040;-74
2021/08/06 01:32:43;;;;;;;15.48;5.53;;;;;;;24.08;84.21;93721.00;10485321;28;20116;-75
2021/08/06 01:37:43;;;;;;;23.48;5.95;;;;;;;24.24;83.49;93705.00;10484969;28;20096;-75
2021/08/06 01:42:56;;;;;;;17.23;4.93;;;;;;;24.18;84.73;93718.31;10489003;28;20043;-75
2021/08/06 01:47:58;;;;;;;22.08;6.10;;;;;;;24.05;85.74;93726.06;10491911;28;20024;-75
2021/08/06 01:53:01;;;;;;;19.65;6.68;;;;;;;23.92;87.39;93711.13;10492643;28;20872;-75
2021/08/06 01:58:03;;;;;;;16.52;4.95;;;;;;;23.97;86.97;93721.72;10474226;28;20024;-75
2021/08/06 02:03:05;;;;;;;20.73;5.30;;;;;;;23.97;85.22;93720.94;10491578;28;20849;-75
2021/08/06 02:08:09;;;;;;;17.17;6.45;;;;;;;23.98;85.04;93695.84;10492129;28;20013;-74
2021/08/06 02:13:09;;;;;;;13.57;6.38;;;;;;;24.05;85.81;93703.34;10491457;28;20657;-75
2021/08/06 02:18:11;;;;;;;13.20;5.65;;;;;;;24.06;83.22;93700.22;10491537;28;20036;-74
2021/08/06 02:23:12;;;;;;;13.48;5.15;;;;;;;24.28;83.17;93700.31;10492057;28;20075;-74
2021/08/06 02:28:13;;;;;;;19.15;5.10;;;;;;;24.35;83.37;93692.09;10524865;28;20048;-75
2021/08/06 02:33:15;;;;;;;20.52;5.35;;;;;;;24.33;83.56;93699.91;10533798;28;20031;-75
2021/08/06 02:38:21;;;;;;;21.15;5.45;;;;;;;24.23;85.63;93701.44;10533755;28;20157;-75
2021/08/06 02:43:22;;;;;;;16.30;5.57;;;;;;;23.96;87.75;93703.69;10533149;28;20499;-75
2021/08/06 02:48:22;;;;;;;14.38;6.30;;;;;;;23.81;88.03;93691.03;10514416;28;20146;-75
2021/08/06 02:53:23;;;;;;;18.57;5.30;;;;;;;23.69;90.61;93695.69;10531293;28;20391;-75
2021/08/06 02:58:23;;;;;;;15.87;4.93;;;;;;;23.67;91.37;93700.75;10531455;28;20099;-74
2021/08/06 03:03:23;;;;;;;21.73;6.00;;;;;;;23.66;91.77;93703.88;10531213;28;20031;-74
2021/08/06 03:08:24;;;;;;;18.77;5.60;;;;;;;23.64;93.02;93704.25;10531238;28;20479;-74
2021/08/06 03:13:24;;;;;;;13.63;4.27;;;;;;;23.60;94.38;93710.91;10511397;28;20032;-74
2021/08/06 03:18:25;;;;;;;18.48;5.28;;;;;;;23.61;93.68;93721.50;10529270;28;20059;-75
2021/08/06 03:23:25;;;;;;;17.60;5.07;;;;;;;23.67;91.71;93730.94;10529355;28;20032;-76
2021/08/06 03:28:25;;;;;;;19.43;4.97;;;;;;;23.93;90.96;93737.41;10494197;28;20503;-75
2021/08/06 03:33:26;;;;;;;15.73;4.40;;;;;;;23.77;97.85;93761.56;10469976;28;20032;-75
2021/08/06 03:38:26;;;;;;;18.20;4.93;;;;;;;22.95;100.00;93800.75;10487668;28;20028;-75
2021/08/06 03:43:27;;;;;;;13.32;5.43;;;;;;;21.27;100.00;93837.03;10487854;28;20118;-75
2021/08/06 03:48:27;;;;;;;15.02;5.28;;;;;;;20.29;100.00;93852.66;10487992;28;20025;-75
2021/08/06 03:53:27;;;;;;;16.75;6.30;;;;;;;19.52;100.00;93860.22;10487621;28;20025;-74
2021/08/06 03:58:28;;;;;;;20.33;7.03;;;;;;;18.83;100.00;93854.09;10487912;28;20051;-73
2021/08/06 04:03:28;;;;;;;26.13;8.43;;;;;;;18.22;100.00;93862.13;10487307;28;20519;-74
2021/08/06 04:08:29;;;;;;;13.03;6.43;;;;;;;18.09;100.00;93890.44;10486736;28;20304;-74
2021/08/06 04:13:29;;;;;;;19.77;7.38;;;;;;;18.19;100.00;93894.63;10487282;28;20190;-74
2021/08/06 04:18:29;;;;;;;27.27;7.55;;;;;;;18.18;100.00;93901.19;10487627;28;20035;-74
2021/08/06 04:23:30;;;;;;;19.20;8.50;;;;;;;18.26;100.00;93911.16;10487508;28;20407;-74
2021/08/06 04:28:30;;;;;;;14.88;8.27;;;;;;;18.12;100.00;93914.22;10522291;28;20512;-74
2021/08/06 04:33:32;;;;;;;17.83;8.53;;;;;;;18.02;100.00;93920.13;10529135;28;20395;-74
2021/08/06 04:38:32;;;;;;;15.48;8.30;;;;;;;18.05;100.00;93911.28;10511356;28;20270;-74
2021/08/06 04:43:32;;;;;;;17.87;8.17;;;;;;;18.31;100.00;93921.00;10529104;28;20024;-74
2021/08/06 04:48:33;;;;;;;23.77;8.93;;;;;;;18.22;100.00;93915.69;10528248;28;20286;-73
2021/08/06 04:53:34;;;;;;;13.53;7.57;;;;;;;18.16;100.00;93920.56;10529051;28;20028;-73
2021/08/06 04:58:35;;;;;;;18.80;8.65;;;;;;;18.50;100.00;93921.19;10529082;28;20273;-74
2021/08/06 05:03:35;;;;;;;23.67;9.57;;;;;;;18.73;100.00;93924.22;10528332;28;20076;-74
2021/08/06 05:08:38;;;;;;;17.40;8.57;;;;;;;18.77;100.00;93916.94;10528835;28;20413;-74
2021/08/06 05:13:39;;;;;;;27.95;10.30;;;;;;;18.98;100.00;93939.69;10528806;28;20055;-74
2021/08/06 05:18:39;;;;;;;16.27;8.20;;;;;;;18.95;100.00;93944.72;10535090;28;20558;-74
2021/08/06 05:23:39;;;;;;;20.70;10.10;;;;;;;19.05;100.00;93937.19;10537008;28;20289;-74
2021/08/06 05:28:40;;;;;;;19.07;9.17;;;;;;;19.15;100.00;93949.53;10536340;28;20040;-74
2021/08/06 05:33:40;;;;;;;25.43;10.60;;;;;;;19.15;100.00;93949.53;10536652;28;20024;-74
2021/08/06 05:38:41;;;;;;;20.10;10.07;;;;;;;19.39;100.00;93967.69;10536475;28;20441;-74
2021/08/06 05:43:41;;;;;;;22.77;10.13;;;;;;;19.43;100.00;93960.41;10536227;28;20032;-74
2021/08/06 05:48:41;;;;;;;19.53;9.70;;;;;;;19.52;100.00;93963.78;10536164;28;20134;-74
2021/08/06 05:53:42;;;;;;;17.27;9.30;;;;;;;19.59;100.00;93977.59;10535555;28;20352;-74
2021/08/06 05:58:42;;;;;;;13.40;8.87;;;;;;;19.69;100.00;93968.09;10535405;28;20153;-74
2021/08/06 06:03:42;;;;;;;16.73;8.47;;;;;;;19.84;100.00;93963.81;10535464;28;20024;-74
2021/08/06 06:08:43;;;;;;;18.73;8.47;;;;;;;20.00;100.00;93971.25;10534780;28;20077;-74
2021/08/06 06:13:43;;;;;;;16.20;8.13;;;;;;;20.28;100.00;93963.72;10535005;28;20028;-74
2021/08/06 06:18:43;;;;;;;18.33;8.90;;;;;;;20.58;100.00;93963.25;10534712;28;20035;-74
2021/08/06 06:23:44;;;;;;;15.50;8.80;;;;;;;20.83;100.00;93969.28;10534544;28;20028;-74
2021/08/06 06:28:44;;;;;;;17.63;8.77;;;;;;;21.11;100.00;93962.84;10533097;28;20138;-74
2021/08/06 06:33:44;;;;;;;20.93;7.63;;;;;;;21.57;100.00;93959.44;10533870;28;20032;-74
2021/08/06 06:38:45;;;;;;;20.03;6.93;;;;;;;23.94;100.00;93942.03;10533615;28;20024;-74
2021/08/06 06:43:45;;;;;;;20.00;5.47;;;;;;;24.94;100.00;93924.72;10533645;28;20046;-74
2021/08/06 06:48:46;;;;;;;12.70;5.23;;;;;;;25.14;100.00;93932.66;10533250;28;20020;-74
2021/08/06 06:53:47;;;;;;;17.67;5.10;;;;;;;26.83;100.00;93943.16;10533473;28;20277;-75
2021/08/06 06:58:47;;;;;;;16.17;4.75;;;;;;;28.22;100.00;93924.41;10532961;28;20278;-75
2021/08/06 07:03:48;;;;;;;13.93;4.70;;;;;;;28.67;91.92;93917.34;10533620;28;20031;-74
2021/08/06 07:08:48;;;;;;;11.50;4.20;;;;;;;29.13;79.60;93910.53;10514623;28;20024;-74
2021/08/06 07:13:49;;;;;;;9.00;4.15;;;;;;;29.61;80.10;93914.28;10532559;28;20096;-74
2021/08/06 07:18:49;;;;;;;9.17;3.70;;;;;;;29.17;81.28;93916.03;10532535;28;20031;-74
2021/08/06 07:23:51;;;;;;;16.50;4.70;;;;;;;28.96;81.06;93910.31;10531586;28;20040;-74
2021/08/06 07:28:52;;;;;;;15.77;4.50;;;;;;;26.97;92.66;93912.03;10531686;28;20043;-74
2021/08/06 07:33:52;;;;;;;10.30;4.60;;;;;;;26.50;100.00;93898.31;10531881;28;20020;-74
2021/08/06 07:38:53;;;;;;;10.93;5.43;;;;;;;26.67;100.00;93903.00;10531716;28;20111;-74
2021/08/06 07:43:53;;;;;;;18.80;6.22;;;;;;;26.75;98.39;93895.53;10512953;28;20024;-74
2021/08/06 07:48:54;;;;;;;11.87;4.50;;;;;;;27.50;93.87;93883.44;10531514;28;20085;-74
2021/08/06 07:53:54;;;;;;;24.73;5.47;;;;;;;29.22;73.10;93887.88;10530902;28;20024;-74
2021/08/06 07:58:55;;;;;;;15.93;4.47;;;;;;;31.33;55.10;93885.72;10530758;28;20020;-74
2021/08/06 08:03:55;;;;;;;8.27;3.60;;;;;;;33.06;49.16;93866.97;10530422;28;20055;-74
2021/08/06 08:08:55;;;;;;;11.30;3.42;;;;;;;34.16;45.35;93878.06;10530060;28;20399;-74
2021/08/06 08:13:56;;;;;;;11.87;4.17;;;;;;;34.85;41.27;93865.44;10530485;28;20131;-75
2021/08/06 08:18:57;;;;;;;17.75;3.80;;;;;;;35.80;39.79;93862.81;10529970;28;20015;-75
2021/08/06 08:23:57;;;;;;;8.68;3.65;;;;;;;36.52;37.87;93860.78;10530215;28;20067;-75
2021/08/06 08:28:58;;;;;;;7.60;3.83;;;;;;;33.79;42.52;93868.47;10529894;28;20054;-75
2021/08/06 08:33:58;;;;;;;12.07;4.37;;;;;;;32.39;46.27;93871.06;10529730;28;20266;-75
2021/08/06 08:39:04;;;;;;;11.83;4.50;;;;;;;34.53;41.03;93858.94;10511583;28;20024;-75
2021/08/06 08:44:05;;;;;;;14.25;4.03;;;;;;;35.99;38.54;93838.53;10529465;28;20270;-75
2021/08/06 08:49:05;;;;;;;8.85;3.38;;;;;;;36.87;35.65;93849.31;10529027;28;20464;-75
2021/08/06 08:54:06;;;;;;;5.30;3.20;;;;;;;37.22;34.09;93845.41;10528785;28;20047;-75
2021/08/06 08:59:06;;;;;;;8.77;3.63;;;;;;;37.05;35.44;93850.53;10529418;28;20013;-75
2021/08/06 09:04:24;;;;;;;13.73;4.27;;;;;;;34.67;38.42;93845.72;10528787;28;20023;-75
2021/08/06 09:09:27;;;;;;;15.15;5.10;;;;;;;34.27;39.88;93832.28;10529261;28;20506;-75
2021/08/06 09:14:30;;;;;;;11.38;4.80;;;;;;;34.95;39.17;93837.59;10528804;28;20046;-75
2021/08/06 09:19:36;;;;;;;8.63;4.20;;;;;;;36.49;36.32;93844.13;10528713;28;20035;-75
2021/08/06 09:25:19;;;;;;;9.20;4.18;;;;;;;37.53;33.26;93834.00;10528327;28;20070;-75
2021/08/06 09:30:37;;;;;;;10.88;5.18;;;;;;;37.66;31.76;93835.84;10514919;28;20050;-75
2021/08/06 09:35:38;;;;;;;12.40;5.70;;;;;;;39.28;30.69;93831.47;10528345;28;20032;-75
2021/08/06 09:40:41;;;;;;;8.95;5.72;;;;;;;39.01;30.42;93838.09;10528485;28;20070;-75
2021/08/06 09:45:42;;;;;;;9.10;5.05;;;;;;;39.14;29.45;93823.78;10527860;28;20405;-73
2021/08/06 09:50:46;;;;;;;9.60;4.93;;;;;;;35.68;32.83;93825.34;10509679;28;20085;-74
2021/08/06 09:55:50;;;;;;;10.43;5.55;;;;;;;35.39;34.61;93826.41;10527856;28;20027;-75
2021/08/06 10:00:52;;;;;;;9.40;5.95;;;;;;;36.74;32.12;93829.84;10510324;28;20024;-75
2021/08/06 10:06:18;;;;;;;7.10;5.30;;;;;;;37.20;29.66;93834.66;10515527;28;20411;-75
2021/08/06 10:11:19;;;;;;;;;;;;;;;39.73;28.17;93827.88;10535308;28;20020;-75
2021/08/06 10:16:19;;;;;;;7.95;4.45;;;;;;;35.86;30.66;93819.84;10534759;28;19912;-75
2021/08/06 10:21:21;;;;;;;7.70;4.75;;;;;;;38.23;28.50;93821.16;10534479;28;20099;-74
2021/08/06 10:26:22;;;;;;;4.82;4.18;;;;;;;40.45;25.32;93806.97;10534222;28;20529;-75
2021/08/06 10:31:24;;;;;;;9.63;4.35;;;;;;;39.21;26.89;93800.16;10533458;28;20115;-74
2021/08/06 10:36:50;;;;;;;8.90;4.30;;;;;;;38.24;27.17;93798.22;10534414;28;20032;-75
2021/08/06 10:41:51;;;;;;;4.30;3.28;;;;;;;36.22;28.79;93798.81;10515598;28;20028;-75
2021/08/06 10:47:06;;;;;;;5.78;4.10;;;;;;;36.55;28.51;93792.66;10533427;28;20035;-74
2021/08/06 10:52:33;;;;;;;7.68;3.45;;;;;;;38.32;27.11;93781.00;10540068;28;20024;-75
2021/08/06 10:57:38;;;;;;;5.07;2.97;;;;;;;39.89;25.27;93770.34;10529179;28;20406;-75
2021/08/06 11:02:40;;;;;;;4.68;2.58;;;;;;;39.96;25.92;93767.88;10532986;28;20048;-74
2021/08/06 11:07:41;;;;;;;6.78;2.70;;;;;;;39.65;24.27;93771.28;10532694;28;20032;-74
2021/08/06 11:12:41;;;;;;;9.30;2.90;;;;;;;39.97;24.74;93772.25;10532004;28;20399;-74
2021/08/06 11:17:46;;;;;;;5.67;2.87;;;;;;;37.84;26.16;93774.09;10532245;28;20028;-74
2021/08/06 11:22:49;;;;;;;5.20;2.60;;;;;;;34.34;29.61;93774.31;10532055;28;20575;-74
2021/08/06 11:27:50;;;;;;;8.63;3.00;;;;;;;32.54;33.53;93772.13;10531356;28;20067;-74
2021/08/06 11:32:53;;;;;;;3.30;2.30;;;;;;;31.53;34.86;93762.72;10531199;28;20032;-73
2021/08/06 11:38:02;;;;;;;7.03;3.30;;;;;;;30.58;36.89;93756.81;10513078;28;20050;-74
2021/08/06 11:43:12;;;;;;;10.40;3.22;;;;;;;29.97;37.62;93762.25;10531043;28;20028;-74
2021/08/06 11:48:13;;;;;;;7.63;3.20;;;;;;;29.66;37.98;93765.06;10530474;28;20515;-73
2021/08/06 11:53:28;;;;;;;8.32;2.97;;;;;;;29.64;37.95;93766.72;10530566;28;20115;-73
2021/08/06 11:58:36;;;;;;;3.58;3.05;;;;;;;29.34;39.67;93773.88;10531779;28;20031;-74
2021/08/06 12:03:45;;;;;;;4.65;2.58;;;;;;;29.05;38.64;93768.72;10534400;28;20398;-74
2021/08/06 12:08:48;;;;;;;5.88;2.63;;;;;;;28.97;39.21;93773.56;10533774;28;20024;-74
2021/08/06 12:13:51;;;;;;;4.10;2.50;;;;;;;28.79;37.04;93768.28;10534212;28;20039;-76
2021/08/06 12:18:54;;;;;;;7.13;3.03;;;;;;;28.61;37.65;93773.22;10533527;28;20030;-76
2021/08/06 12:24:11;;;;;;;4.43;2.58;;;;;;;27.78;37.60;93769.28;10515490;28;20024;-75
2021/08/06 12:29:23;;;;;;;3.55;1.80;;;;;;;28.07;38.01;93773.78;10475187;28;20503;-73
2021/08/06 12:34:27;;;;;;;3.60;1.95;;;;;;;28.02;38.92;93777.78;10491658;28;20024;-73
2021/08/06 12:39:30;;;;;;;2.35;1.77;;;;;;;28.16;38.74;93784.34;10491185;28;20048;-74
2021/08/06 12:44:31;;;;;;;4.38;1.67;;;;;;;28.15;39.02;93783.56;10491294;28;20498;-73
2021/08/06 12:49:33;;;;;;;3.70;1.30;;;;;;;28.11;37.44;93783.59;10491255;28;20036;-74
2021/08/06 12:54:44;;;;;;;5.40;1.55;;;;;;;27.93;36.72;93786.47;10490726;28;20302;-74
2021/08/06 12:59:44;;;;;;;3.63;1.33;;;;;;;27.87;36.66;93787.34;10488420;28;20028;-74
2021/08/06 13:04:47;;;;;;;7.47;1.23;;;;;;;27.83;37.79;93798.41;10487165;28;20028;-74
2021/08/06 13:09:47;;;;;;;2.65;1.30;;;;;;;27.62;36.55;93793.84;10468634;28;20488;-74
2021/08/06 13:14:49;;;;;;;2.20;0.77;;;;;;;27.65;37.99;93795.81;10468899;28;20029;-74
2021/08/06 13:19:50;;;;;;;2.58;0.85;;;;;;;27.60;36.71;93801.75;10487120;28;20446;-73
2021/08/06 13:24:50;;;;;;;2.85;1.63;;;;;;;27.49;37.33;93803.78;10486447;28;20060;-74
2021/08/06 13:29:51;;;;;;;2.23;0.80;;;;;;;27.28;37.10;93799.97;10469098;28;20554;-74
2021/08/06 13:34:51;;;;;;;7.35;0.65;;;;;;;27.13;37.08;93802.03;10486527;28;20286;-74
2021/08/06 13:39:51;;;;;;;1.33;0.50;;;;;;;26.77;38.55;93807.72;10492715;28;20024;-74
2021/08/06 13:44:52;;;;;;;2.80;0.87;;;;;;;26.36;39.63;93806.25;10509192;28;20032;-73
2021/08/06 13:49:53;;;;;;;3.10;0.97;;;;;;;26.48;38.03;93813.28;10493635;28;20282;-74
2021/08/06 13:54:53;;;;;;;3.65;2.25;;;;;;;26.64;38.57;93817.56;10493310;28;20086;-73
2021/08/06 13:59:53;;;;;;;7.53;0.60;;;;;;;26.63;37.22;93814.03;10475034;28;20025;-73
2021/08/06 14:04:54;;;;;;;7.57;0.80;;;;;;;26.58;36.67;93823.50;10492977;28;20275;-74
2021/08/06 14:09:54;;;;;;;0.80;0.60;;;;;;;26.57;35.57;93815.63;10492609;28;20090;-74
2021/08/06 14:14:55;;;;;;;1.35;0.75;;;;;;;26.30;36.15;93824.34;10493191;28;20103;-74
2021/08/06 14:19:55;;;;;;;1.58;0.80;;;;;;;26.31;36.24;93828.69;10493014;28;20025;-73
2021/08/06 14:24:56;;;;;;;1.43;0.60;;;;;;;26.24;36.19;93817.69;10492562;28;20052;-73
2021/08/06 14:29:56;;;;;;;1.53;0.77;;;;;;;26.06;34.19;93826.75;10492315;28;20305;-74
2021/08/06 14:34:56;;;;;;;3.73;0.90;;;;;;;26.01;35.57;93820.81;10492282;28;21142;-73
2021/08/06 14:39:57;;;;;;;1.17;0.88;;;;;;;25.92;37.13;93827.50;10491381;28;20028;-74
2021/08/06 14:44:57;;;;;;;0.95;0.70;;;;;;;25.92;36.53;93830.25;10491890;28;20096;-73
2021/08/06 14:49:59;;;;;;;3.13;0.67;;;;;;;25.96;36.23;93835.78;10490563;28;20044;-74
2021/08/06 14:54:59;;;;;;;4.90;0.70;;;;;;;25.87;36.83;93838.13;10491453;28;20350;-73
2021/08/06 15:00:00;;;;;;;2.15;0.63;;;;;;;25.68;36.88;93844.81;10491629;28;20028;-74
2021/08/06 15:05:01;;;;;;;5.28;0.90;;;;;;;25.71;36.22;93853.06;10490724;28;20035;-74
2021/08/06 15:10:03;;;;;;;1.50;0.68;;;;;;;25.35;36.61;93847.50;10491027;28;20436;-74
2021/08/06 15:15:04;;;;;;;2.67;0.90;;;;;;;25.15;38.35;93860.00;10490746;28;20525;-73
2021/08/06 15:20:07;;;;;;;7.10;0.73;;;;;;;25.23;37.89;93859.63;10490309;28;20395;-73
2021/08/06 15:25:08;;;;;;;4.13;0.80;;;;;;;25.31;36.91;93860.44;10489732;28;20048;-73
2021/08/06 15:30:09;;;;;;;3.70;1.10;;;;;;;25.38;37.72;93860.50;10490001;28;20029;-74
2021/08/06 15:35:09;;;;;;;5.57;1.13;;;;;;;25.45;36.40;93869.94;10489245;28;20051;-73
2021/08/06 15:40:10;;;;;;;1.90;0.85;;;;;;;25.39;37.48;93873.06;10489413;28;20055;-73
2021/08/06 15:45:11;;;;;;;2.10;0.80;;;;;;;25.40;37.51;93884.88;10489227;28;20828;-74
2021/08/06 15:50:13;;;;;;;1.83;1.17;;;;;;;25.11;37.29;93887.47;10471147;28;20024;-73
2021/08/06 15:55:13;;;;;;;2.55;0.70;;;;;;;25.16;37.97;93880.81;10488746;28;20041;-73
2021/08/06 16:00:14;;;;;;;0.90;0.60;;;;;;;25.20;38.45;93887.91;10487658;28;20024;-73
2021/08/06 16:05:14;;;;;;;1.48;0.60;;;;;;;24.87;38.90;93888.97;10488068;28;20285;-74
2021/08/06 16:10:15;;;;;;;0.80;0.60;;;;;;;24.78;37.77;93888.50;10487507;28;20040;-73
2021/08/06 16:15:16;;;;;;;0.90;0.80;;;;;;;24.44;37.76;93885.94;10488068;28;20097;-73
2021/08/06 16:20:16;;;;;;;2.40;0.65;;;;;;;24.42;37.84;93894.56;10487675;28;20511;-74
2021/08/06 16:25:17;;;;;;;2.20;0.60;;;;;;;24.31;37.56;93905.47;10495620;28;20126;-73
2021/08/06 16:30:17;;;;;;;3.28;0.70;;;;;;;24.35;38.37;93900.81;10529313;28;20381;-73
2021/08/06 16:35:19;;;;;;;2.22;0.68;;;;;;;24.15;40.95;93910.47;10511106;28;20154;-73
2021/08/06 16:40:20;;;;;;;2.75;1.20;;;;;;;24.14;39.92;93922.59;10528385;28;20136;-74
2021/08/06 16:45:21;;;;;;;7.90;1.17;;;;;;;24.18;40.75;93934.41;10527507;28;20028;-74
2021/08/06 16:50:22;;;;;;;2.30;0.90;;;;;;;24.17;41.86;93949.31;10528138;28;20035;-73
2021/08/06 16:55:22;;;;;;;3.20;0.73;;;;;;;24.10;42.82;93949.22;10529267;28;20035;-73
2021/08/06 17:00:23;;;;;;;2.23;0.87;;;;;;;24.03;44.01;93963.69;10528769;28;20273;-73
2021/08/06 17:05:24;;;;;;;4.60;0.75;;;;;;;23.97;43.68;93973.44;10528818;28;20491;-74
2021/08/06 17:10:24;;;;;;;1.05;0.80;;;;;;;23.88;43.99;93980.00;10528557;28;20032;-73
2021/08/06 17:15:25;;;;;;;7.33;0.67;;;;;;;23.82;43.95;93980.69;10536085;28;20028;-73
2021/08/06 17:20:26;;;;;;;3.17;0.85;;;;;;;23.71;44.12;93980.59;10536805;28;20274;-74
2021/08/06 17:25:27;;;;;;;4.07;1.00;;;;;;;23.53;44.93;93997.66;10536473;28;20048;-73
2021/08/06 17:30:27;;;;;;;3.85;0.77;;;;;;;23.36;45.26;93993.53;10536041;28;20036;-73
2021/08/06 17:35:28;;;;;;;1.70;0.75;;;;;;;23.20;45.95;94001.94;10517889;28;20023;-73
2021/08/06 17:40:31;;;;;;;1.10;0.93;;;;;;;22.90;47.16;94001.09;10551640;28;20020;-73
2021/08/06 17:45:32;;;;;;;2.97;0.80;;;;;;;22.92;47.94;94005.06;10535962;28;20289;-73
2021/08/06 17:50:33;;;;;;;5.10;1.00;;;;;;;22.89;48.34;94011.28;10537066;28;20035;-74
2021/08/06 17:55:33;;;;;;;3.45;0.98;;;;;;;22.76;50.49;94009.91;10535473;28;20028;-73
2021/08/06 18:00:34;;;;;;;0.70;0.63;;;;;;;22.69;52.84;94014.13;10535878;28;20071;-74
2021/08/06 18:05:35;;;;;;;2.97;0.80;;;;;;;22.64;53.66;94027.34;10534862;28;20024;-73
2021/08/06 18:10:35;;;;;;;1.13;0.98;;;;;;;22.51;55.55;94032.25;10534634;28;20020;-74
2021/08/06 18:15:36;;;;;;;4.60;1.13;;;;;;;22.21;56.67;94049.31;10534837;28;20028;-74
2021/08/06 18:20:36;;;;;;;1.95;0.95;;;;;;;22.35;57.28;94059.72;10534419;28;20086;-73
2021/08/06 18:25:37;;;;;;;2.03;1.20;;;;;;;22.17;57.92;94073.06;10532931;28;20050;-73
2021/08/06 18:30:38;;;;;;;5.57;1.45;;;;;;;21.98;60.54;94077.44;10534416;28;20044;-74
2021/08/06 18:35:39;;;;;;;3.70;1.77;;;;;;;21.84;63.03;94088.13;10534105;28;20039;-74
2021/08/06 18:40:40;;;;;;;3.30;1.20;;;;;;;21.66;64.03;94096.75;10533803;28;20027;-74
2021/08/06 18:45:40;;;;;;;2.40;1.20;;;;;;;21.54;64.06;94099.59;10533953;28;20407;-74
2021/08/06 18:50:41;;;;;;;2.08;1.30;;;;;;;21.33;65.80;94103.44;10533313;28;20031;-73
2021/08/06 18:55:41;;;;;;;2.08;1.27;;;;;;;21.19;66.94;94108.59;10533393;28;20030;-74
2021/08/06 19:00:42;;;;;;;1.70;1.27;;;;;;;21.10;67.66;94116.22;10533016;28;20099;-73
2021/08/06 19:05:42;;;;;;;2.70;1.40;;;;;;;21.09;70.55;94120.88;10532983;28;20028;-74
2021/08/06 19:10:44;;;;;;;3.55;1.40;;;;;;;21.03;70.52;94127.75;10532353;28;20028;-73
2021/08/06 19:15:45;;;;;;;1.63;1.20;;;;;;;21.08;69.66;94130.19;10532066;28;20032;-73
2021/08/06 19:20:45;;;;;;;2.72;1.20;;;;;;;21.08;71.90;94130.19;10532864;28;20032;-74
2021/08/06 19:25:47;;;;;;;1.67;1.20;;;;;;;21.03;72.54;94140.63;10531890;28;20052;-73
2021/08/06 19:30:48;;;;;;;2.70;1.40;;;;;;;20.87;72.60;94141.41;10529620;28;20039;-74
2021/08/06 19:35:49;;;;;;;3.75;1.88;;;;;;;20.83;75.26;94144.09;10529934;28;20036;-74
2021/08/06 19:40:49;;;;;;;6.00;1.30;;;;;;;20.63;75.70;94139.63;10529447;28;20204;-74
2021/08/06 19:45:50;;;;;;;1.97;1.30;;;;;;;20.45;76.86;94134.50;10529094;28;20031;-74
2021/08/06 19:50:50;;;;;;;3.72;1.13;;;;;;;20.42;78.33;94135.22;10527707;28;20835;-73
2021/08/06 19:55:51;;;;;;;2.27;1.57;;;;;;;20.32;79.21;94143.94;10527778;28;20471;-74
2021/08/06 20:00:51;;;;;;;7.20;1.50;;;;;;;20.21;79.38;94138.19;10526787;28;20047;-74
2021/08/06 20:05:52;;;;;;;1.73;1.02;;;;;;;20.18;78.95;94151.72;10528297;28;20280;-74
2021/08/06 20:10:53;;;;;;;1.65;1.13;;;;;;;20.15;81.25;94148.56;10509676;28;20664;-74
2021/08/06 20:15:54;;;;;;;2.67;1.40;;;;;;;20.07;82.36;94160.41;10528166;28;20059;-74
2021/08/06 20:20:55;;;;;;;2.42;0.93;;;;;;;20.06;83.33;94167.00;10528113;28;20024;-74
2021/08/06 20:25:55;;;;;;;5.27;1.27;;;;;;;20.15;81.38;94167.66;10527431;28;20480;-74
2021/08/06 20:30:56;;;;;;;1.47;1.07;;;;;;;20.02;84.21;94170.78;10527581;28;20294;-73
2021/08/06 20:35:56;;;;;;;3.17;1.50;;;;;;;19.95;84.90;94179.53;10527759;28;20653;-73
2021/08/06 20:40:56;;;;;;;3.33;1.40;;;;;;;19.81;87.15;94174.47;10527678;28;20284;-74
2021/08/06 20:45:57;;;;;;;2.43;1.10;;;;;;;19.78;85.51;94177.88;10526433;28;20032;-74
2021/08/06 20:50:58;;;;;;;1.38;1.13;;;;;;;19.72;87.65;94184.72;10526987;28;20297;-74
2021/08/06 20:55:58;;;;;;;7.97;1.75;;;;;;;19.72;87.46;94184.72;10527062;28;20031;-74
2021/08/06 21:00:58;;;;;;;2.77;1.13;;;;;;;19.65;87.93;94190.75;10526901;28;20028;-74
2021/08/06 21:05:59;;;;;;;1.00;0.90;;;;;;;19.52;89.20;94198.16;10527012;28;20274;-74
2021/08/06 21:10:59;;;;;;;1.23;0.88;;;;;;;19.51;88.23;94203.94;10525175;28;20089;-74
2021/08/06 21:16:00;;;;;;;1.73;1.25;;;;;;;19.51;88.41;94204.75;10525362;28;20544;-74
2021/08/06 21:21:00;;;;;;;1.42;0.93;;;;;;;19.43;88.51;94200.22;10525934;28;20388;-74
2021/08/06 21:26:02;;;;;;;1.70;1.43;;;;;;;19.41;89.55;94208.72;10527403;28;20052;-74
2021/08/06 21:31:05;;;;;;;1.52;1.00;;;;;;;19.38;89.74;94212.16;10526470;28;20067;-73
2021/08/06 21:36:05;;;;;;;1.45;0.95;;;;;;;19.42;91.86;94213.06;10526198;28;20047;-74
2021/08/06 21:41:06;;;;;;;1.77;0.80;;;;;;;19.40;89.84;94217.25;10526399;28;20031;-74
2021/08/06 21:46:06;;;;;;;1.33;1.00;;;;;;;19.40;90.18;94231.66;10526361;28;20066;-74
2021/08/06 21:51:07;;;;;;;1.25;1.15;;;;;;;19.46;88.28;94234.94;10526045;28;20020;-74
2021/08/06 21:56:07;;;;;;;1.30;1.10;;;;;;;19.46;88.64;94241.19;10526270;28;20103;-74
2021/08/06 22:01:08;;;;;;;1.00;0.90;;;;;;;19.40;87.31;94239.06;10532119;28;20797;-74
2021/08/06 22:06:08;;;;;;;1.52;1.23;;;;;;;19.34;86.53;94251.28;10533406;28;20050;-74
2021/08/06 22:11:09;;;;;;;2.60;0.95;;;;;;;19.17;89.37;94258.56;10533446;28;20398;-74
2021/08/06 22:16:09;;;;;;;4.18;1.13;;;;;;;19.19;91.33;94259.03;10533208;28;20035;-74
2021/08/06 22:21:10;;;;;;;1.85;1.10;;;;;;;18.93;90.36;94262.84;10532916;28;20391;-74
2021/08/06 22:26:10;;;;;;;1.83;1.00;;;;;;;18.93;90.34;94259.31;10532399;28;20534;-74
2021/08/06 22:31:13;;;;;;;1.33;1.00;;;;;;;18.93;89.09;94265.56;10532843;28;20351;-74
2021/08/06 22:36:13;;;;;;;1.15;1.05;;;;;;;18.91;90.25;94258.88;10532524;28;20032;-74
2021/08/06 22:41:14;;;;;;;1.00;0.88;;;;;;;19.01;90.49;94255.72;10512317;28;20020;-74
2021/08/06 22:46:15;;;;;;;1.97;1.07;;;;;;;18.94;91.40;94260.94;10531595;28;20032;-74
2021/08/06 22:51:17;;;;;;;1.70;0.90;;;;;;;18.89;88.61;94261.13;10530603;28;20028;-74
2021/08/06 22:56:18;;;;;;;2.22;0.80;;;;;;;18.90;89.38;94263.50;10531280;28;20501;-74
2021/08/06 23:01:18;;;;;;;1.17;1.00;;;;;;;18.70;90.17;94270.59;10531362;28;20027;-74
2021/08/06 23:06:18;;;;;;;1.00;0.90;;;;;;;18.73;92.14;94271.84;10531136;28;20020;-74
2021/08/06 23:11:19;;;;;;;3.03;1.10;;;;;;;18.66;90.84;94274.34;10512070;28;20282;-74
2021/08/06 23:16:20;;;;;;;2.67;1.40;;;;;;;18.74;92.46;94279.69;10531094;28;20301;-74